Time;durP1;ratioP1;P1;durP2;ratioP2;P2;SDS_P1;SDS_P2;PMS_P1;PMS_P2;Temp;Humidity;BMP_temperature;BMP_pressure;BME280_temperature;BME280_humidity;BME280_pressure;Samples;Min_cycle;Max_cycle;Signal;HPM_P1;HPM_P2
2023/09/03 00:02:08;;;;;;;31.73;27.40;;;16.80;99.90;;;;;;5034448;28;20045;-52
2023/09/03 00:04:35;;;;;;;34.85;29.52;;;16.80;99.90;;;;;;5033192;28;20044;-54
2023/09/03 00:07:01;;;;;;;31.40;28.02;;;16.80;99.90;;;;;;5034510;28;20041;-52
2023/09/03 00:09:28;;;;;;;36.25;29.92;;;16.80;99.90;;;;;;5034948;28;20037;-52
2023/09/03 00:11:55;;;;;;;33.70;29.38;;;16.80;99.90;;;;;;5034697;28;20037;-47
2023/09/03 00:14:22;;;;;;;35.30;30.38;;;16.80;99.90;;;;;;5034421;28;20128;-53
2023/09/03 00:16:49;;;;;;;36.17;29.73;;;16.70;99.90;;;;;;5034051;28;20033;-49
2023/09/03 00:19:15;;;;;;;34.10;30.48;;;16.70;99.90;;;;;;5033070;28;20100;-49
2023/09/03 00:21:42;;;;;;;33.13;29.90;;;16.70;99.90;;;;;;5034101;28;20042;-49
2023/09/03 00:24:09;;;;;;;37.58;30.45;;;16.60;99.90;;;;;;5033837;28;20038;-50
2023/09/03 00:26:36;;;;;;;34.95;30.38;;;16.60;99.90;;;;;;5033779;28;20041;-53
2023/09/03 00:29:03;;;;;;;34.95;30.55;;;16.60;99.90;;;;;;5034184;28;20128;-50
2023/09/03 00:31:29;;;;;;;35.38;31.77;;;16.60;99.90;;;;;;5033962;28;20459;-53
2023/09/03 00:33:56;;;;;;;34.13;29.77;;;16.50;99.90;;;;;;5034125;28;20476;-49
2023/09/03 00:36:23;;;;;;;39.13;32.10;;;16.50;99.90;;;;;;5033972;28;20042;-49
2023/09/03 00:38:50;;;;;;;36.55;31.15;;;16.60;99.90;;;;;;5032307;28;20115;-50
2023/09/03 00:41:17;;;;;;;35.65;31.10;;;16.50;99.90;;;;;;5033753;28;20153;-50
2023/09/03 00:43:44;;;;;;;35.85;30.67;;;16.50;99.90;;;;;;5033991;28;20120;-48
2023/09/03 00:46:11;;;;;;;37.15;30.90;;;16.40;99.90;;;;;;5032267;28;20108;-50
2023/09/03 00:48:38;;;;;;;34.83;31.10;;;16.40;99.90;;;;;;5034103;28;20056;-49
2023/09/03 00:51:05;;;;;;;33.95;29.60;;;16.40;99.90;;;;;;5033610;28;20048;-51
2023/09/03 00:53:32;;;;;;;34.40;29.55;;;16.40;99.90;;;;;;5033419;28;20542;-51
2023/09/03 00:55:59;;;;;;;34.42;30.70;;;16.40;99.90;;;;;;5033604;28;20046;-48
2023/09/03 00:58:26;;;;;;;34.00;29.45;;;16.40;99.90;;;;;;5031907;28;20551;-50
2023/09/03 01:00:53;;;;;;;36.72;29.45;;;16.30;99.90;;;;;;5033179;28;20072;-48
2023/09/03 01:03:21;;;;;;;34.45;30.77;;;16.30;99.90;;;;;;5031768;28;20135;-55
2023/09/03 01:05:49;;;;;;;35.15;29.38;;;16.30;99.90;;;;;;5032518;28;20041;-48
2023/09/03 01:08:16;;;;;;;33.45;30.02;;;16.20;99.90;;;;;;5032219;28;20119;-52
2023/09/03 01:10:43;;;;;;;36.78;30.60;;;16.20;99.90;;;;;;5033440;28;20038;-49
2023/09/03 01:13:09;;;;;;;35.47;31.77;;;16.10;99.90;;;;;;5031767;28;20460;-48
2023/09/03 01:15:36;;;;;;;39.13;32.25;;;16.10;99.90;;;;;;5032099;28;20152;-50
2023/09/03 01:18:03;;;;;;;34.70;30.92;;;16.20;99.90;;;;;;5033105;28;20115;-50
2023/09/03 01:20:30;;;;;;;34.45;30.58;;;16.10;99.90;;;;;;5033799;28;20037;-54
2023/09/03 01:22:57;;;;;;;36.03;32.00;;;16.10;99.90;;;;;;5033476;28;20078;-52
2023/09/03 01:25:23;;;;;;;38.65;31.13;;;16.10;99.90;;;;;;5031756;28;20037;-51
2023/09/03 01:27:50;;;;;;;36.65;31.73;;;16.10;99.90;;;;;;5032814;28;20156;-49
2023/09/03 01:30:17;;;;;;;38.28;31.65;;;16.10;99.90;;;;;;5032090;28;20049;-47
2023/09/03 01:32:44;;;;;;;34.35;30.65;;;16.10;99.90;;;;;;5033396;28;20042;-50
2023/09/03 01:35:10;;;;;;;35.17;31.38;;;16.00;99.90;;;;;;5033508;28;20046;-50
2023/09/03 01:37:37;;;;;;;36.58;32.60;;;16.00;99.90;;;;;;5032792;28;20052;-47
2023/09/03 01:40:04;;;;;;;33.90;30.40;;;16.00;99.90;;;;;;5031402;28;20055;-49
2023/09/03 01:42:31;;;;;;;35.05;31.35;;;16.00;99.90;;;;;;5033620;28;20128;-51
2023/09/03 01:44:58;;;;;;;32.92;29.45;;;16.00;99.90;;;;;;5032687;28;20489;-54
2023/09/03 01:47:25;;;;;;;40.03;33.33;;;15.90;99.90;;;;;;5031250;28;20357;-50
2023/09/03 01:49:51;;;;;;;35.45;31.75;;;15.90;99.90;;;;;;5032732;28;20041;-49
2023/09/03 01:52:18;;;;;;;35.42;31.85;;;15.90;99.90;;;;;;5032668;28;20053;-51
2023/09/03 01:54:47;;;;;;;33.70;30.00;;;15.90;99.90;;;;;;5032864;28;20392;-51
2023/09/03 01:57:15;;;;;;;33.28;29.77;;;15.90;99.90;;;;;;5031674;28;20057;-54
2023/09/03 01:59:42;;;;;;;36.90;29.63;;;15.80;99.90;;;;;;5015803;28;20049;-53
2023/09/03 02:02:09;;;;;;;32.80;29.45;;;15.80;99.90;;;;;;5031277;28;20128;-51
2023/09/03 02:04:36;;;;;;;34.80;31.02;;;15.70;99.90;;;;;;5031854;28;20145;-51
2023/09/03 02:07:02;;;;;;;33.83;30.23;;;15.70;99.90;;;;;;5032466;28;20396;-49
2023/09/03 02:09:29;;;;;;;35.58;31.95;;;15.60;99.90;;;;;;5033031;28;20037;-51
2023/09/03 02:11:56;;;;;;;34.72;30.77;;;15.60;99.90;;;;;;5032999;28;20473;-50
2023/09/03 02:14:23;;;;;;;33.65;29.95;;;15.60;99.90;;;;;;5035363;28;20461;-52
2023/09/03 02:16:50;;;;;;;35.33;31.60;;;15.50;99.90;;;;;;5035425;28;20041;-54
2023/09/03 02:19:17;;;;;;;40.63;32.17;;;15.50;99.90;;;;;;5036932;28;20099;-47
2023/09/03 02:21:44;;;;;;;37.25;33.15;;;15.50;99.90;;;;;;5036473;28;20132;-49
2023/09/03 02:24:11;;;;;;;35.22;31.60;;;15.50;99.90;;;;;;5035259;28;20045;-49
2023/09/03 02:26:38;;;;;;;36.00;32.20;;;15.50;99.90;;;;;;5036630;28;20038;-49
2023/09/03 02:29:04;;;;;;;36.22;32.40;;;15.50;99.90;;;;;;5035369;28;20120;-49
2023/09/03 02:31:32;;;;;;;39.15;31.73;;;15.40;99.90;;;;;;5036243;28;20045;-51
2023/09/03 02:33:59;;;;;;;33.92;30.25;;;15.40;99.90;;;;;;5036677;28;20141;-50
2023/09/03 02:36:26;;;;;;;36.20;32.40;;;15.40;99.90;;;;;;5034607;28;20057;-48
2023/09/03 02:38:53;;;;;;;33.58;30.25;;;15.40;99.90;;;;;;5036198;28;20124;-51
2023/09/03 02:41:19;;;;;;;36.47;29.60;;;15.40;99.90;;;;;;5035092;28;20041;-49
2023/09/03 02:43:47;;;;;;;33.65;29.95;;;15.40;99.90;;;;;;5034384;28;20451;-47
2023/09/03 02:46:14;;;;;;;33.20;29.70;;;15.40;99.90;;;;;;5036232;28;20049;-48
2023/09/03 02:48:40;;;;;;;36.33;31.23;;;15.40;99.90;;;;;;5036216;28;20385;-53
2023/09/03 02:51:07;;;;;;;34.97;31.50;;;15.40;99.90;;;;;;5035781;28;20030;-50
2023/09/03 02:53:34;;;;;;;33.60;29.98;;;15.30;99.90;;;;;;5035691;28;20599;-49
2023/09/03 02:56:01;;;;;;;36.08;31.23;;;15.30;99.90;;;;;;5034395;28;20075;-49
2023/09/03 02:58:28;;;;;;;33.72;30.23;;;15.30;99.90;;;;;;5035657;28;20075;-51
2023/09/03 03:00:55;;;;;;;33.30;28.88;;;15.20;99.90;;;;;;5034868;28;20148;-48
2023/09/03 03:03:21;;;;;;;35.05;30.35;;;15.20;99.90;;;;;;5035530;28;20048;-48
2023/09/03 03:05:48;;;;;;;33.15;29.65;;;15.20;99.90;;;;;;5035658;28;20080;-54
2023/09/03 03:08:15;;;;;;;35.03;31.23;;;15.20;99.90;;;;;;5034128;28;20113;-51
2023/09/03 03:10:42;;;;;;;33.63;30.25;;;15.20;99.90;;;;;;5035452;28;20050;-51
2023/09/03 03:13:10;;;;;;;33.38;30.13;;;15.10;99.90;;;;;;5034010;28;20037;-51
2023/09/03 03:15:37;;;;;;;32.10;28.70;;;15.10;99.90;;;;;;5034073;28;20100;-51
2023/09/03 03:18:04;;;;;;;38.00;29.67;;;15.10;99.90;;;;;;5034515;28;20072;-49
2023/09/03 03:20:31;;;;;;;31.52;28.13;;;15.10;99.90;;;;;;5033871;28;20053;-48
2023/09/03 03:22:58;;;;;;;30.10;27.02;;;15.10;99.90;;;;;;5034354;28;20068;-50
2023/09/03 03:25:24;;;;;;;28.45;25.52;;;15.10;99.90;;;;;;5032408;28;20415;-52
2023/09/03 03:27:52;;;;;;;26.60;23.90;;;15.00;99.90;;;;;;5034846;28;20068;-51
2023/09/03 03:30:19;;;;;;;24.50;22.05;;;15.00;99.90;;;;;;5033739;28;20092;-52
2023/09/03 03:32:46;;;;;;;23.55;21.05;;;15.00;99.90;;;;;;5033570;28;20041;-50
2023/09/03 03:35:13;;;;;;;23.75;21.20;;;14.90;99.90;;;;;;5035391;28;20390;-52
2023/09/03 03:37:40;;;;;;;23.85;20.80;;;14.90;99.90;;;;;;5033859;28;20073;-52
2023/09/03 03:40:07;;;;;;;25.58;21.55;;;14.90;99.90;;;;;;5035422;28;20052;-49
2023/09/03 03:42:36;;;;;;;24.45;21.85;;;14.90;99.90;;;;;;5034107;28;20049;-53
2023/09/03 03:45:03;;;;;;;21.95;19.83;;;14.90;99.90;;;;;;5033478;28;20416;-50
2023/09/03 03:47:30;;;;;;;24.02;21.52;;;14.80;99.90;;;;;;5033776;28;20045;-55
2023/09/03 03:49:57;;;;;;;23.15;20.85;;;14.80;99.90;;;;;;5034850;28;20392;-51
2023/09/03 03:52:25;;;;;;;23.83;21.17;;;14.80;99.90;;;;;;5033523;28;20073;-50
2023/09/03 03:54:52;;;;;;;24.55;22.13;;;14.80;99.90;;;;;;5034806;28;20063;-53
2023/09/03 03:57:19;;;;;;;24.92;22.63;;;14.70;99.90;;;;;;5034557;28;20056;-52
2023/09/03 03:59:46;;;;;;;25.15;22.63;;;14.70;99.90;;;;;;5033646;28;20065;-45
2023/09/03 04:02:13;;;;;;;23.67;21.40;;;14.60;99.90;;;;;;5033407;28;20149;-48
2023/09/03 04:04:39;;;;;;;23.55;21.27;;;14.60;99.90;;;;;;5033162;28;20499;-49
2023/09/03 04:07:06;;;;;;;23.98;21.58;;;14.50;99.90;;;;;;5033448;28;20046;-51
2023/09/03 04:09:35;;;;;;;22.85;20.63;;;14.40;99.90;;;;;;5033022;28;20037;-48
2023/09/03 04:12:02;;;;;;;23.45;21.05;;;14.40;99.90;;;;;;5033009;28;20120;-46
2023/09/03 04:14:30;;;;;;;23.65;21.33;;;14.40;99.90;;;;;;5034748;28;20548;-49
2023/09/03 04:16:57;;;;;;;23.58;21.23;;;14.40;99.90;;;;;;5034017;28;20047;-48
2023/09/03 04:19:24;;;;;;;26.75;24.08;;;14.40;99.90;;;;;;5034245;28;20045;-50
2023/09/03 04:21:50;;;;;;;31.15;28.08;;;14.40;99.90;;;;;;5032963;28;20056;-50
2023/09/03 04:24:17;;;;;;;36.50;32.80;;;14.50;99.90;;;;;;5033133;28;20136;-44
2023/09/03 04:26:44;;;;;;;36.70;32.90;;;14.50;99.90;;;;;;5032687;28;20550;-46
2023/09/03 04:29:11;;;;;;;64.53;35.80;;;14.50;99.90;;;;;;5034294;28;20045;-49
2023/09/03 04:31:37;;;;;;;41.00;34.00;;;14.50;99.90;;;;;;5016431;28;20041;-45
2023/09/03 04:34:05;;;;;;;54.47;34.15;;;14.50;99.90;;;;;;5033789;28;20425;-49
2023/09/03 04:36:34;;;;;;;46.55;36.35;;;14.40;99.90;;;;;;5032632;28;20073;-46
2023/09/03 04:39:03;;;;;;;34.20;30.70;;;14.50;99.90;;;;;;5032822;28;20435;-49
2023/09/03 04:41:30;;;;;;;35.20;31.55;;;14.50;99.90;;;;;;5032581;28;20500;-51
2023/09/03 04:43:57;;;;;;;39.10;34.50;;;14.50;99.90;;;;;;5032536;28;20045;-54
2023/09/03 04:46:25;;;;;;;37.30;33.38;;;14.50;99.90;;;;;;5032607;28;20041;-49
2023/09/03 04:48:52;;;;;;;54.10;33.15;;;14.50;99.90;;;;;;5032456;28;20095;-46
2023/09/03 04:51:18;;;;;;;49.65;36.30;;;14.50;99.90;;;;;;5033668;28;20045;-50
2023/09/03 04:53:46;;;;;;;44.55;34.13;;;14.50;99.90;;;;;;5032076;28;20053;-47
2023/09/03 04:56:13;;;;;;;46.47;35.65;;;14.50;99.90;;;;;;5032265;28;20045;-54
2023/09/03 04:58:43;;;;;;;50.53;37.13;;;14.60;99.90;;;;;;5032330;28;20417;-47
2023/09/03 05:01:10;;;;;;;50.42;37.53;;;14.60;99.90;;;;;;5032279;28;20499;-49
2023/09/03 05:03:37;;;;;;;60.63;38.78;;;14.60;99.90;;;;;;5033318;28;20075;-49
2023/09/03 05:06:04;;;;;;;64.22;37.38;;;14.60;99.90;;;;;;5033914;28;20041;-48
2023/09/03 05:08:30;;;;;;;58.80;38.45;;;14.60;99.90;;;;;;5033101;28;20431;-50
2023/09/03 05:10:57;;;;;;;71.65;39.72;;;14.60;99.90;;;;;;5033545;28;20386;-52
2023/09/03 05:13:24;;;;;;;58.80;42.20;;;14.60;99.90;;;;;;5032114;28;20414;-46
2023/09/03 05:15:51;;;;;;;56.80;40.38;;;14.60;99.90;;;;;;5032416;28;20080;-51
2023/09/03 05:18:18;;;;;;;65.28;39.92;;;14.70;99.90;;;;;;5033122;28;20500;-47
2023/09/03 05:20:45;;;;;;;68.90;41.60;;;14.60;99.90;;;;;;5031963;28;20491;-49
2023/09/03 05:23:12;;;;;;;80.45;45.47;;;14.60;99.90;;;;;;5033505;28;20124;-48
2023/09/03 05:25:39;;;;;;;57.38;42.13;;;14.70;99.90;;;;;;5031761;28;20045;-53
2023/09/03 05:28:06;;;;;;;78.07;45.88;;;14.70;99.90;;;;;;5031752;28;20049;-50
2023/09/03 05:30:33;;;;;;;80.00;44.20;;;14.80;99.90;;;;;;5032428;28;20091;-53
2023/09/03 05:33:03;;;;;;;99.18;42.67;;;14.80;99.90;;;;;;5032377;28;20052;-49
2023/09/03 05:35:33;;;;;;;93.35;43.25;;;14.80;99.90;;;;;;5033647;28;20038;-51
2023/09/03 05:38:00;;;;;;;77.22;43.45;;;14.80;99.90;;;;;;5031860;28;20045;-52
2023/09/03 05:40:27;;;;;;;79.72;41.40;;;14.80;99.90;;;;;;5031707;28;20080;-53
2023/09/03 05:42:53;;;;;;;66.85;41.67;;;14.80;99.90;;;;;;5031585;28;20045;-47
2023/09/03 05:45:22;;;;;;;69.82;40.22;;;14.90;99.90;;;;;;5032115;28;20055;-49
2023/09/03 05:47:49;;;;;;;100.43;41.50;;;14.90;99.90;;;;;;5031439;28;20057;-45
2023/09/03 05:50:16;;;;;;;89.40;38.83;;;14.90;99.90;;;;;;5036786;28;20076;-49
2023/09/03 05:52:43;;;;;;;98.60;40.58;;;14.90;99.90;;;;;;5035620;28;20053;-51
2023/09/03 05:55:10;;;;;;;90.00;40.22;;;14.90;99.90;;;;;;5036846;28;20053;-54
2023/09/03 05:57:37;;;;;;;79.30;39.58;;;14.90;99.90;;;;;;5037380;28;20049;-54
2023/09/03 06:00:05;;;;;;;60.17;37.35;;;15.00;99.90;;;;;;5037431;28;20038;-53
2023/09/03 06:02:32;;;;;;;79.60;37.17;;;15.00;99.90;;;;;;5037260;28;20045;-48
2023/09/03 06:05:02;;;;;;;90.25;36.67;;;15.10;99.90;;;;;;5035839;28;20054;-51
2023/09/03 06:07:28;;;;;;;63.70;34.03;;;15.10;99.90;;;;;;5035353;28;20480;-49
2023/09/03 06:09:55;;;;;;;74.00;37.50;;;15.10;99.90;;;;;;5036955;28;20046;-47
2023/09/03 06:12:22;;;;;;;87.68;35.67;;;15.10;99.90;;;;;;5036791;28;20045;-47
2023/09/03 06:14:49;;;;;;;98.68;34.60;;;15.20;99.90;;;;;;5037121;28;20073;-51
2023/09/03 06:17:16;;;;;;;87.28;34.83;;;15.20;99.90;;;;;;5036494;28;20042;-50
2023/09/03 06:19:46;;;;;;;61.55;33.88;;;15.20;99.90;;;;;;5035712;28;20055;-47
2023/09/03 06:22:12;;;;;;;92.97;30.77;;;15.20;99.90;;;;;;5036957;28;20049;-51
2023/09/03 06:24:39;;;;;;;70.90;32.20;;;15.30;99.90;;;;;;5036879;28;20044;-49
2023/09/03 06:27:06;;;;;;;110.55;31.17;;;15.20;99.90;;;;;;5036461;28;20041;-49
2023/09/03 06:29:33;;;;;;;48.30;32.45;;;15.10;99.90;;;;;;5036636;28;20041;-53
2023/09/03 06:32:00;;;;;;;57.08;31.73;;;15.20;99.90;;;;;;5035170;28;20045;-51
2023/09/03 06:34:27;;;;;;;70.45;31.00;;;15.20;99.90;;;;;;5036576;28;20041;-52
2023/09/03 06:36:53;;;;;;;66.85;29.83;;;15.30;99.90;;;;;;5035275;28;20124;-51
2023/09/03 06:39:20;;;;;;;42.13;27.50;;;15.40;99.90;;;;;;5036274;28;20048;-50
2023/09/03 06:41:47;;;;;;;70.13;29.63;;;15.40;99.90;;;;;;5036293;28;20049;-51
2023/09/03 06:44:16;;;;;;;57.67;28.40;;;15.40;99.90;;;;;;5035275;28;20057;-51
2023/09/03 06:46:43;;;;;;;66.88;28.92;;;15.40;99.90;;;;;;5036250;28;20041;-54
2023/09/03 06:49:10;;;;;;;81.05;27.85;;;15.40;99.90;;;;;;5036341;28;20041;-49
2023/09/03 06:51:37;;;;;;;89.30;26.13;;;15.40;99.90;;;;;;5036304;28;20120;-49
2023/09/03 06:54:03;;;;;;;84.00;25.45;;;15.40;99.90;;;;;;5035478;28;20533;-50
2023/09/03 06:56:34;;;;;;;72.70;23.50;;;15.40;99.90;;;;;;5036142;28;20405;-48
2023/09/03 06:59:01;;;;;;;35.80;22.02;;;15.30;99.90;;;;;;5035813;28;20057;-48
2023/09/03 07:01:27;;;;;;;38.70;24.85;;;15.40;99.90;;;;;;5036344;28;20380;-48
2023/09/03 07:03:54;;;;;;;30.92;24.13;;;15.50;99.90;;;;;;5036132;28;20060;-46
2023/09/03 07:06:21;;;;;;;35.45;25.77;;;15.50;99.90;;;;;;5035542;28;20041;-48
2023/09/03 07:08:48;;;;;;;28.80;25.63;;;15.60;99.90;;;;;;5035992;28;20037;-52
2023/09/03 07:11:15;;;;;;;29.42;26.23;;;15.70;99.90;;;;;;5035632;28;20556;-49
2023/09/03 07:13:42;;;;;;;30.10;27.10;;;15.70;99.90;;;;;;5035787;28;20437;-52
2023/09/03 07:16:09;;;;;;;28.90;25.90;;;15.70;99.90;;;;;;5034538;28;20057;-52
2023/09/03 07:18:35;;;;;;;30.02;27.08;;;15.80;99.90;;;;;;5035371;28;20103;-49
2023/09/03 07:21:02;;;;;;;29.42;26.33;;;15.80;99.90;;;;;;5036120;28;20056;-48
2023/09/03 07:23:29;;;;;;;28.65;25.75;;;15.90;99.90;;;;;;5035392;28;20050;-47
2023/09/03 07:25:56;;;;;;;29.67;26.58;;;16.00;99.90;;;;;;5035100;28;20114;-48
2023/09/03 07:28:23;;;;;;;30.27;26.77;;;16.00;99.90;;;;;;5035087;28;20037;-47
2023/09/03 07:30:50;;;;;;;29.92;26.90;;;16.10;99.90;;;;;;5035081;28;20037;-48
2023/09/03 07:33:17;;;;;;;30.00;26.80;;;16.10;99.90;;;;;;5035083;28;20069;-45
2023/09/03 07:35:43;;;;;;;30.65;27.48;;;16.20;99.90;;;;;;5035122;28;20046;-55
2023/09/03 07:38:10;;;;;;;29.80;26.80;;;16.20;99.90;;;;;;5034855;28;20041;-48
2023/09/03 07:40:37;;;;;;;31.17;27.90;;;16.30;99.90;;;;;;5034982;28;20037;-48
2023/09/03 07:43:04;;;;;;;30.77;26.77;;;16.30;99.90;;;;;;5034986;28;20052;-53
2023/09/03 07:45:30;;;;;;;29.60;26.38;;;16.40;99.90;;;;;;5034994;28;20044;-55
2023/09/03 07:47:57;;;;;;;28.20;25.05;;;16.40;99.90;;;;;;5035254;28;20037;-49
2023/09/03 07:50:26;;;;;;;29.02;25.92;;;16.50;99.90;;;;;;5034885;28;20073;-50
2023/09/03 07:52:53;;;;;;;28.52;23.60;;;16.60;99.90;;;;;;5035098;28;20495;-55
2023/09/03 07:55:19;;;;;;;27.02;24.23;;;16.70;99.90;;;;;;5034601;28;20064;-53
2023/09/03 07:57:46;;;;;;;29.33;25.23;;;16.70;99.90;;;;;;5033748;28;20472;-51
2023/09/03 08:00:13;;;;;;;25.90;23.23;;;16.80;99.90;;;;;;5034764;28;20133;-51
2023/09/03 08:02:42;;;;;;;27.35;24.45;;;16.90;99.90;;;;;;5034876;28;20073;-48
2023/09/03 08:05:11;;;;;;;28.13;23.58;;;17.00;99.90;;;;;;5033246;28;20075;-48
2023/09/03 08:07:39;;;;;;;22.70;20.35;;;17.10;99.90;;;;;;5034406;28;20374;-53
2023/09/03 08:10:06;;;;;;;22.65;20.45;;;17.20;99.90;;;;;;5034875;28;20046;-55
2023/09/03 08:12:32;;;;;;;23.88;21.55;;;17.40;99.90;;;;;;5034227;28;20034;-46
2023/09/03 08:14:59;;;;;;;23.08;20.65;;;17.50;99.90;;;;;;5034712;28;20033;-49
2023/09/03 08:17:29;;;;;;;21.67;19.40;;;17.50;99.90;;;;;;5034282;28;20050;-52
2023/09/03 08:19:56;;;;;;;21.50;19.48;;;17.60;99.90;;;;;;5034669;28;20041;-52
2023/09/03 08:22:23;;;;;;;21.02;18.83;;;17.70;99.90;;;;;;5034049;28;20037;-55
2023/09/03 08:24:50;;;;;;;19.88;17.75;;;17.70;99.90;;;;;;5033314;28;20046;-50
2023/09/03 08:27:16;;;;;;;19.92;17.83;;;17.80;99.90;;;;;;5033902;28;20037;-50
2023/09/03 08:29:43;;;;;;;20.20;17.80;;;17.90;99.90;;;;;;5034123;28;20041;-53
2023/09/03 08:32:11;;;;;;;20.42;18.27;;;17.90;99.90;;;;;;5033976;28;20059;-55
2023/09/03 08:34:38;;;;;;;18.05;16.02;;;17.90;99.90;;;;;;5034184;28;20056;-51
2023/09/03 08:37:05;;;;;;;20.05;15.77;;;18.00;99.90;;;;;;5034077;28;20412;-48
2023/09/03 08:39:34;;;;;;;19.17;15.23;;;18.10;99.90;;;;;;5034332;28;20042;-55
2023/09/03 08:42:00;;;;;;;20.88;15.82;;;18.20;99.90;;;;;;5033586;28;20048;-51
2023/09/03 08:44:27;;;;;;;18.98;15.25;;;18.20;99.90;;;;;;5034119;28;20037;-53
2023/09/03 08:46:54;;;;;;;17.73;15.15;;;18.20;99.90;;;;;;5033891;28;20159;-52
2023/09/03 08:49:21;;;;;;;16.98;14.98;;;18.40;99.90;;;;;;5033969;28;20044;-51
2023/09/03 08:51:48;;;;;;;21.23;15.15;;;18.50;99.90;;;;;;5033453;28;20096;-50
2023/09/03 08:54:15;;;;;;;19.65;15.40;;;18.60;99.90;;;;;;5033294;28;20057;-47
2023/09/03 08:56:42;;;;;;;16.70;14.95;;;18.70;99.90;;;;;;5033433;28;20377;-47
2023/09/03 08:59:08;;;;;;;18.40;16.42;;;19.00;99.90;;;;;;5034141;28;20103;-49
2023/09/03 09:01:35;;;;;;;16.58;14.85;;;19.20;99.90;;;;;;5033743;28;20037;-50
2023/09/03 09:04:03;;;;;;;16.42;13.18;;;19.30;99.90;;;;;;5033351;28;20037;-53
2023/09/03 09:06:29;;;;;;;15.30;12.25;;;19.50;99.90;;;;;;5033322;28;20047;-55
2023/09/03 09:08:56;;;;;;;15.80;12.07;;;19.60;99.90;;;;;;5033493;28;20072;-51
2023/09/03 09:11:23;;;;;;;14.98;12.60;;;19.80;99.90;;;;;;5032288;28;20044;-52
2023/09/03 09:13:50;;;;;;;12.25;10.70;;;19.80;99.90;;;;;;5033232;28;20088;-52
2023/09/03 09:16:17;;;;;;;12.73;11.25;;;19.70;99.90;;;;;;5033433;28;20479;-50
2023/09/03 09:18:44;;;;;;;14.57;10.10;;;19.80;99.90;;;;;;5033584;28;20045;-54
2023/09/03 09:21:10;;;;;;;11.25;9.50;;;19.80;99.90;;;;;;5033693;28;20428;-50
2023/09/03 09:23:37;;;;;;;11.50;9.88;;;19.80;99.90;;;;;;5033530;28;20037;-62
2023/09/03 09:26:04;;;;;;;11.68;10.32;;;19.70;99.90;;;;;;5033565;28;20477;-51
2023/09/03 09:28:31;;;;;;;12.98;9.80;;;19.60;99.90;;;;;;5033491;28;20041;-52
2023/09/03 09:30:57;;;;;;;12.63;9.60;;;19.70;99.90;;;;;;5030617;28;20037;-50
2023/09/03 09:33:25;;;;;;;12.32;10.48;;;19.70;99.90;;;;;;5030721;28;20364;-47
2023/09/03 09:35:53;;;;;;;12.63;11.23;;;19.70;99.90;;;;;;5033914;28;20045;-50
2023/09/03 09:38:20;;;;;;;14.05;12.65;;;19.80;99.90;;;;;;5032964;28;20369;-47
2023/09/03 09:40:47;;;;;;;12.90;11.60;;;20.00;99.90;;;;;;5033320;28;20547;-53
2023/09/03 09:43:14;;;;;;;13.98;12.15;;;20.10;99.90;;;;;;5033074;28;20048;-51
2023/09/03 09:45:41;;;;;;;15.13;12.60;;;20.10;99.90;;;;;;5033150;28;20236;-51
2023/09/03 09:48:10;;;;;;;14.43;10.77;;;20.20;99.90;;;;;;5033108;28;20037;-51
2023/09/03 09:50:37;;;;;;;15.60;13.48;;;20.30;99.90;;;;;;5033706;28;20124;-56
2023/09/03 09:53:04;;;;;;;15.88;12.90;;;20.30;99.90;;;;;;5033792;28;20045;-52
2023/09/03 09:55:32;;;;;;;18.58;14.93;;;20.40;99.90;;;;;;5031906;28;20049;-48
2023/09/03 09:57:59;;;;;;;17.27;14.05;;;20.50;99.90;;;;;;5032359;28;20117;-54
2023/09/03 10:00:26;;;;;;;16.38;13.60;;;20.70;99.90;;;;;;5028384;28;20112;-55
2023/09/03 10:02:53;;;;;;;14.63;13.10;;;20.80;99.90;;;;;;5024086;28;20033;-56
2023/09/03 10:05:20;;;;;;;14.98;13.05;;;20.80;99.90;;;;;;5048180;28;20116;-57
2023/09/03 10:07:47;;;;;;;14.48;12.77;;;20.90;99.90;;;;;;5044313;28;20047;-53
2023/09/03 10:10:14;;;;;;;15.77;12.60;;;20.80;99.90;;;;;;5031044;28;20037;-53
2023/09/03 10:12:40;;;;;;;15.63;12.68;;;20.80;99.90;;;;;;5024978;28;20046;-51
2023/09/03 10:15:07;;;;;;;15.90;11.45;;;20.90;99.90;;;;;;5025941;28;20042;-54
2023/09/03 10:17:34;;;;;;;15.05;11.43;;;21.00;99.90;;;;;;5028231;28;20053;-49
2023/09/03 10:20:04;;;;;;;13.50;12.10;;;21.10;99.90;;;;;;5042952;28;20136;-50
2023/09/03 10:22:31;;;;;;;12.73;11.15;;;21.30;99.90;;;;;;5017018;28;20041;-56
2023/09/03 10:24:57;;;;;;;15.13;12.27;;;21.40;99.90;;;;;;5011455;28;20144;-56
2023/09/03 10:27:25;;;;;;;15.20;12.65;;;21.40;99.90;;;;;;5012794;28;20049;-51
2023/09/03 10:29:52;;;;;;;13.88;12.40;;;21.40;99.90;;;;;;5012660;28;20045;-49
2023/09/03 10:32:18;;;;;;;15.70;13.07;;;21.40;99.90;;;;;;5012964;28;20046;-51
2023/09/03 10:34:46;;;;;;;18.98;14.13;;;21.30;99.90;;;;;;5014147;28;20069;-51
2023/09/03 10:37:12;;;;;;;14.25;12.75;;;21.20;99.90;;;;;;5016556;28;20046;-56
2023/09/03 10:39:45;;;;;;;15.13;13.50;;;21.20;99.90;;;;;;5016531;28;20111;-50
2023/09/03 10:42:12;;;;;;;15.40;13.40;;;21.20;99.90;;;;;;5016325;28;20048;-47
2023/09/03 10:44:38;;;;;;;16.00;13.98;;;21.30;99.90;;;;;;5024320;28;20049;-49
2023/09/03 10:47:05;;;;;;;17.23;13.02;;;21.40;99.90;;;;;;5022904;28;20057;-50
2023/09/03 10:49:32;;;;;;;13.65;12.18;;;21.40;99.90;;;;;;5027584;28;20041;-51
2023/09/03 10:51:59;;;;;;;14.18;12.75;;;21.70;99.90;;;;;;5035705;28;20041;-52
2023/09/03 10:54:26;;;;;;;12.90;11.60;;;21.90;99.90;;;;;;5035974;28;20053;-50
2023/09/03 10:56:52;;;;;;;13.60;11.60;;;22.00;99.90;;;;;;5035897;28;20042;-51
2023/09/03 10:59:20;;;;;;;13.57;11.65;;;22.00;99.90;;;;;;5035711;28;20095;-52
2023/09/03 11:01:48;;;;;;;15.30;12.75;;;22.10;99.90;;;;;;5036306;28;20389;-52
2023/09/03 11:04:14;;;;;;;15.63;13.93;;;22.20;99.90;;;;;;5035874;28;20046;-48
2023/09/03 11:06:42;;;;;;;17.33;13.65;;;22.30;99.90;;;;;;5034195;28;20542;-52
2023/09/03 11:09:10;;;;;;;16.42;14.27;;;22.20;99.90;;;;;;5035597;28;20084;-49
2023/09/03 11:11:38;;;;;;;14.75;13.23;;;22.30;99.90;;;;;;5035484;28;20041;-52
2023/09/03 11:14:06;;;;;;;14.32;12.80;;;22.40;99.90;;;;;;5035438;28;20041;-47
2023/09/03 11:16:33;;;;;;;14.93;12.85;;;22.70;99.90;;;;;;5035434;28;20048;-55
2023/09/03 11:19:00;;;;;;;15.27;12.60;;;23.00;99.90;;;;;;5035282;28;20136;-53
2023/09/03 11:21:27;;;;;;;14.35;12.85;;;23.10;99.90;;;;;;5035260;28;20120;-49
2023/09/03 11:23:54;;;;;;;15.23;13.23;;;23.30;99.90;;;;;;5035475;28;20132;-54
2023/09/03 11:26:21;;;;;;;13.60;11.43;;;23.40;99.90;;;;;;5033931;28;20045;-53
2023/09/03 11:28:48;;;;;;;14.00;12.60;;;23.40;99.90;;;;;;5035307;28;20052;-57
2023/09/03 11:31:14;;;;;;;13.60;12.07;;;23.50;99.90;;;;;;5034358;28;20461;-51
2023/09/03 11:33:41;;;;;;;15.13;12.85;;;23.50;99.90;;;;;;5035533;28;20079;-48
2023/09/03 11:36:08;;;;;;;16.17;14.48;;;23.40;99.90;;;;;;5035278;28;20125;-54
2023/09/03 11:38:35;;;;;;;16.92;14.77;;;23.40;99.90;;;;;;5035175;28;20041;-50
2023/09/03 11:41:02;;;;;;;16.27;13.80;;;23.30;99.90;;;;;;5035222;28;20551;-51
2023/09/03 11:43:29;;;;;;;16.05;14.35;;;23.20;99.90;;;;;;5034995;28;20053;-52
2023/09/03 11:45:56;;;;;;;12.48;11.18;;;23.20;99.90;;;;;;5033928;28;20049;-50
2023/09/03 11:48:23;;;;;;;14.27;12.43;;;23.30;99.90;;;;;;5035187;28;20038;-52
2023/09/03 11:50:50;;;;;;;13.30;11.90;;;23.40;99.90;;;;;;5035378;28;20043;-49
2023/09/03 11:53:16;;;;;;;17.33;13.23;;;23.50;99.90;;;;;;5034481;28;20041;-49
2023/09/03 11:55:44;;;;;;;17.27;13.32;;;23.70;99.90;;;;;;5035058;28;20384;-51
2023/09/03 11:58:10;;;;;;;17.42;14.70;;;23.80;99.90;;;;;;5035008;28;20388;-53
2023/09/03 12:00:37;;;;;;;18.90;14.70;;;23.70;99.90;;;;;;5034605;28;20051;-52
2023/09/03 12:03:04;;;;;;;16.60;14.18;;;23.60;99.90;;;;;;5035250;28;20042;-47
2023/09/03 12:05:31;;;;;;;18.42;15.05;;;23.50;99.90;;;;;;5034778;28;20059;-53
2023/09/03 12:07:58;;;;;;;15.15;13.07;;;23.30;99.90;;;;;;5034668;28;20040;-49
2023/09/03 12:10:24;;;;;;;14.88;12.70;;;23.20;99.90;;;;;;5029393;28;20043;-52
2023/09/03 12:12:52;;;;;;;16.10;12.02;;;23.30;99.90;;;;;;5032140;28;20077;-53
2023/09/03 12:15:19;;;;;;;15.07;12.18;;;23.40;99.90;;;;;;5031016;28;20045;-50
2023/09/03 12:17:46;;;;;;;11.95;10.73;;;23.40;99.90;;;;;;5027844;28;20038;-56
2023/09/03 12:20:14;;;;;;;12.93;9.35;;;23.50;99.90;;;;;;5033795;28;20507;-53
2023/09/03 12:22:41;;;;;;;12.02;10.40;;;23.70;99.90;;;;;;5051257;28;20097;-56
2023/09/03 12:25:09;;;;;;;11.07;9.52;;;23.80;99.90;;;;;;5052354;28;20049;-52
2023/09/03 12:27:36;;;;;;;14.45;9.88;;;23.80;99.90;;;;;;5052692;28;20112;-49